Historyczne dane pomiarowe

Dodano dane terminowe – wersja testowa.

Dane z okresu 1951-2019

Wersja bazy: 1.34 [2019-03-16, lista zmian], aktualizacja planowana na 2019-04-15

Dane meteo z obszaru Polski uzyskane na podstawie danych udostępnionych przez Instytut Meteorologii i Gospodarki Wodnej – Państwowy Instytut Badawczy.

 

Wybierz Datę:    

       

TemperaturaWilgotnośćWiatrCiśnienieOpadyŚniegCzas trwania zjawisk
 Stacja t tx tn tng RH VA  wxwx mslp ppp RRR   cm mm wxwxwxwxwxwxwx
1961-08-14 14.4 20.1 6.8--- 1.3 0.3---- 0.0------------
1961-08-13 12.4 17.0 9.8--- 5.3 1.7---- 4.4------------
1961-08-12 18.2 23.5 14.3--- 7.0 0.0---- 22.2------------
1961-08-11 22.7 32.8 17.6--- 4.0 1.0---- 0.0------------
1961-08-10 23.7 29.2 18.1--- 2.7 1.0---- 28.4------------
1961-08-09 22.7 29.3 12.8--- 7.7 0.0---- 0.0------------
1961-08-08 18.1 22.1 14.7--- 7.7 1.7---- 0.0------------
1961-08-07 22.2 31.4 12.5--- 1.3 0.0---- 0.0------------
1961-08-06 22.0 31.4 11.3--- 0.0 0.0---- 0.0------------
1961-08-05 18.6 24.4 13.8--- 4.7 0.7---- 0.0------------
1961-08-04 16.4 21.6 7.7--- 3.7 0.0---- 0.0------------
1961-08-03 18.5 23.6 12.3--- 6.3 0.0---- 0.0------------
1961-08-02 18.1 27.0 6.4--- 0.0 0.0---- 0.0------------
1961-08-01 13.9 21.1 10.4--- 2.7 1.3---- 0.0------------
1961-07-31 13.7 17.0 10.1--- 7.7 4.3---- 2.4------------
1961-07-30 11.3 14.0 10.1--- 8.0 2.0---- 16.9------------
1961-07-29 14.4 19.0 11.7--- 8.0 0.7---- 11.0------------
1961-07-28 20.0 26.1 15.1--- 6.7 2.0---- 18.0------------
1961-07-27 19.5 27.2 9.2--- 5.0 1.3---- 0.0------------
1961-07-26 16.4 23.3 10.0--- 4.7 0.0---- 0.0------------
1961-07-25 14.4 17.2 8.2--- 8.0 0.3---- 0.0------------
1961-07-24 14.0 19.7 8.6--- 3.3 1.3---- 0.0------------
1961-07-23 15.4 21.2 12.1--- 5.0 0.0---- 0.0------------
1961-07-22 15.0 19.6 10.9--- 7.3 2.3---- 0.0------------
1961-07-21 15.6 19.0 9.6--- 5.7 1.3---- 4.0------------
1961-07-20 14.8 20.2 7.9--- 7.0 0.0---- 4.2------------
1961-07-19 15.0 21.3 7.2--- 6.0 1.0---- 0.0------------
1961-07-18 14.2 20.4 8.0--- 4.0 1.3---- 0.0------------
1961-07-17 16.6 22.7 12.2--- 4.3 1.0---- 0.5------------
1961-07-16 16.6 22.0 12.4--- 5.3 1.0---- 0.0------------
1961-07-15 18.5 24.5 9.5--- 5.7 2.3---- 3.4------------
1961-07-14 14.9 19.6 12.3--- 6.0 1.7---- 0.0------------
1961-07-13 20.0 30.2 10.9--- 4.3 3.7---- 11.2------------
1961-07-12 18.8 27.9 9.0--- 4.0 0.3---- 0.0------------
1961-07-11 15.6 21.4 4.5--- 4.3 1.3---- 0.0------------
1961-07-10 13.6 19.2 8.2--- 6.7 1.7---- 0.7------------
1961-07-09 14.4 22.0 5.8--- 6.7 1.7---- 0.8------------
1961-07-08 14.7 21.4 4.9--- 1.3 0.3---- 0.0------------
1961-07-07 12.7 18.1 8.8--- 4.0 1.0---- 0.0------------
1961-07-06 13.1 16.9 5.1--- 8.0 1.7---- 0.0------------
1961-07-05 14.0 20.9 10.7--- 5.3 2.0---- 0.0------------
1961-07-04 22.5 29.9 14.8--- 2.7 1.0---- 3.2------------
1961-07-03 23.1 31.9 12.0--- 0.0 0.0---- 0.0------------
1961-07-02 20.6 28.4 10.1--- 0.0 0.0---- 0.0------------
1961-07-01 20.7 27.2 10.2--- 0.0 0.0---- 0.0------------
1961-06-30 17.8 24.8 8.3--- 0.0 0.3---- 0.0------------
1961-06-29 15.2 21.4 6.4--- 0.7 0.0---- 0.0------------
1961-06-28 13.7 20.8 11.8--- 5.3 3.3---- 1.6------------
1961-06-27 22.9 33.5 14.1--- 2.7 0.0---- 47.8------------
1961-06-26 21.8 33.2 12.3--- 4.3 2.0---- 11.0------------
1961-06-25 21.1 30.2 7.3--- 0.3 1.0---- 0.0------------
1961-06-24 19.1 26.0 9.7--- 0.0 1.7---- 0.0------------
1961-06-23 18.3 24.8 13.5--- 5.3 2.3---- 0.0------------
1961-06-22 18.0 24.6 5.0--- 0.0 1.3---- 2.4------------
1961-06-21 17.9 24.4 4.8--- 0.3 1.3---- 0.0------------
1961-06-20 15.4 21.8 10.7--- 1.7 0.3---- 0.0------------
1961-06-19 17.2 27.6 11.9--- 4.0 0.0---- 0.0------------
1961-06-18 18.3 26.5 6.4--- 1.3 1.0---- 0.0------------
1961-06-17 15.4 23.6 3.6--- 2.7 1.0---- 0.0------------
1961-06-16 12.9 19.9 5.5--- 3.3 2.0---- 0.0------------
274.4 ms

 

Źródłem pochodzenia danych jest Instytut Meteorologii i Gospodarki Wodnej – Państwowy Instytut Badawczy. Dane Instytutu Meteorologii i Gospodarki Wodnej – Państwowego Instytutu Badawczego zostały przetworzone.

Dane źródłowe można odnaleźć na stronie https://dane.imgw.pl